sensor_id;sensor_type;location;lat;lon;timestamp;P1;durP1;ratioP1;P2;durP2;ratioP2
78209;SDS011;67485;48.816;9.930;2023-02-22T00:00:50;12.40;;;4.38;;
78209;SDS011;67485;48.816;9.930;2023-02-22T00:03:24;7.07;;;3.58;;
78209;SDS011;67485;48.816;9.930;2023-02-22T00:05:52;12.98;;;4.18;;
78209;SDS011;67485;48.816;9.930;2023-02-22T00:08:20;5.93;;;3.50;;
78209;SDS011;67485;48.816;9.930;2023-02-22T00:10:47;7.95;;;3.90;;
78209;SDS011;67485;48.816;9.930;2023-02-22T00:13:17;11.48;;;3.85;;
78209;SDS011;67485;48.816;9.930;2023-02-22T00:15:47;6.35;;;3.42;;
78209;SDS011;67485;48.816;9.930;2023-02-22T00:18:14;9.23;;;3.50;;
78209;SDS011;67485;48.816;9.930;2023-02-22T00:20:43;6.73;;;3.47;;
78209;SDS011;67485;48.816;9.930;2023-02-22T00:23:13;6.53;;;3.53;;
78209;SDS011;67485;48.816;9.930;2023-02-22T00:25:44;7.80;;;3.85;;
78209;SDS011;67485;48.816;9.930;2023-02-22T00:28:12;7.03;;;3.17;;
78209;SDS011;67485;48.816;9.930;2023-02-22T00:30:39;7.47;;;3.10;;
78209;SDS011;67485;48.816;9.930;2023-02-22T00:33:08;6.83;;;3.33;;
78209;SDS011;67485;48.816;9.930;2023-02-22T00:35:35;8.30;;;3.67;;
78209;SDS011;67485;48.816;9.930;2023-02-22T00:38:01;7.90;;;3.45;;
78209;SDS011;67485;48.816;9.930;2023-02-22T00:40:33;8.57;;;3.20;;
78209;SDS011;67485;48.816;9.930;2023-02-22T00:43:01;6.60;;;3.30;;
78209;SDS011;67485;48.816;9.930;2023-02-22T00:45:29;8.80;;;3.70;;
78209;SDS011;67485;48.816;9.930;2023-02-22T00:47:56;5.25;;;3.00;;
78209;SDS011;67485;48.816;9.930;2023-02-22T00:50:23;6.30;;;3.15;;
78209;SDS011;67485;48.816;9.930;2023-02-22T00:52:51;7.27;;;3.53;;
78209;SDS011;67485;48.816;9.930;2023-02-22T00:55:19;8.77;;;3.17;;
78209;SDS011;67485;48.816;9.930;2023-02-22T00:57:46;10.45;;;3.00;;
78209;SDS011;67485;48.816;9.930;2023-02-22T01:00:20;8.20;;;3.40;;
78209;SDS011;67485;48.816;9.930;2023-02-22T01:03:06;7.10;;;3.50;;
78209;SDS011;67485;48.816;9.930;2023-02-22T01:05:34;12.10;;;3.75;;
78209;SDS011;67485;48.816;9.930;2023-02-22T01:08:03;7.80;;;4.07;;
78209;SDS011;67485;48.816;9.930;2023-02-22T01:10:33;7.45;;;4.00;;
78209;SDS011;67485;48.816;9.930;2023-02-22T01:13:00;9.55;;;3.97;;
78209;SDS011;67485;48.816;9.930;2023-02-22T01:15:33;10.67;;;4.10;;
78209;SDS011;67485;48.816;9.930;2023-02-22T01:17:59;7.82;;;3.97;;
78209;SDS011;67485;48.816;9.930;2023-02-22T01:20:25;10.07;;;3.70;;
78209;SDS011;67485;48.816;9.930;2023-02-22T01:22:53;9.63;;;3.70;;
78209;SDS011;67485;48.816;9.930;2023-02-22T01:25:22;6.67;;;3.87;;
78209;SDS011;67485;48.816;9.930;2023-02-22T01:27:50;6.55;;;3.55;;
78209;SDS011;67485;48.816;9.930;2023-02-22T01:30:20;8.75;;;3.40;;
78209;SDS011;67485;48.816;9.930;2023-02-22T01:32:49;8.60;;;3.60;;
78209;SDS011;67485;48.816;9.930;2023-02-22T01:35:18;9.25;;;3.58;;
78209;SDS011;67485;48.816;9.930;2023-02-22T01:37:46;10.37;;;3.67;;
78209;SDS011;67485;48.816;9.930;2023-02-22T01:40:17;7.18;;;3.42;;
78209;SDS011;67485;48.816;9.930;2023-02-22T01:42:47;6.95;;;3.42;;
78209;SDS011;67485;48.816;9.930;2023-02-22T01:48:08;7.40;;;3.87;;
78209;SDS011;67485;48.816;9.930;2023-02-22T01:50:39;6.47;;;3.10;;
78209;SDS011;67485;48.816;9.930;2023-02-22T01:53:18;7.05;;;3.67;;
78209;SDS011;67485;48.816;9.930;2023-02-22T01:55:47;6.95;;;3.63;;
78209;SDS011;67485;48.816;9.930;2023-02-22T01:58:18;10.30;;;3.10;;
78209;SDS011;67485;48.816;9.930;2023-02-22T02:00:46;6.33;;;3.07;;
78209;SDS011;67485;48.816;9.930;2023-02-22T02:03:19;7.97;;;3.20;;
78209;SDS011;67485;48.816;9.930;2023-02-22T02:05:49;7.43;;;3.20;;
78209;SDS011;67485;48.816;9.930;2023-02-22T02:10:55;5.23;;;3.00;;
78209;SDS011;67485;48.816;9.930;2023-02-22T02:13:22;7.88;;;2.88;;
78209;SDS011;67485;48.816;9.930;2023-02-22T02:15:52;9.50;;;3.10;;
78209;SDS011;67485;48.816;9.930;2023-02-22T02:18:19;9.20;;;3.55;;
78209;SDS011;67485;48.816;9.930;2023-02-22T02:35:21;9.20;;;3.08;;
78209;SDS011;67485;48.816;9.930;2023-02-22T02:40:46;5.03;;;2.90;;
78209;SDS011;67485;48.816;9.930;2023-02-22T02:45:50;9.07;;;3.15;;
78209;SDS011;67485;48.816;9.930;2023-02-22T02:48:29;9.80;;;3.20;;
78209;SDS011;67485;48.816;9.930;2023-02-22T02:51:02;7.63;;;2.90;;
78209;SDS011;67485;48.816;9.930;2023-02-22T02:53:33;9.98;;;3.20;;
78209;SDS011;67485;48.816;9.930;2023-02-22T02:56:02;6.30;;;2.80;;
78209;SDS011;67485;48.816;9.930;2023-02-22T02:58:28;6.80;;;3.15;;
78209;SDS011;67485;48.816;9.930;2023-02-22T03:00:55;7.57;;;2.80;;
78209;SDS011;67485;48.816;9.930;2023-02-22T03:03:39;7.28;;;3.00;;
78209;SDS011;67485;48.816;9.930;2023-02-22T03:09:45;6.07;;;2.80;;
78209;SDS011;67485;48.816;9.930;2023-02-22T03:17:56;6.40;;;2.28;;
78209;SDS011;67485;48.816;9.930;2023-02-22T03:20:28;6.10;;;2.22;;
78209;SDS011;67485;48.816;9.930;2023-02-22T03:23:03;4.13;;;2.53;;
78209;SDS011;67485;48.816;9.930;2023-02-22T03:25:45;5.60;;;2.47;;
78209;SDS011;67485;48.816;9.930;2023-02-22T03:28:16;4.80;;;2.40;;
78209;SDS011;67485;48.816;9.930;2023-02-22T03:30:48;5.35;;;2.60;;
78209;SDS011;67485;48.816;9.930;2023-02-22T03:33:22;5.07;;;2.47;;
78209;SDS011;67485;48.816;9.930;2023-02-22T03:36:00;6.03;;;2.70;;
78209;SDS011;67485;48.816;9.930;2023-02-22T03:38:31;4.50;;;2.53;;
78209;SDS011;67485;48.816;9.930;2023-02-22T03:41:01;4.73;;;2.60;;
78209;SDS011;67485;48.816;9.930;2023-02-22T03:43:37;5.63;;;2.72;;
78209;SDS011;67485;48.816;9.930;2023-02-22T03:46:11;4.82;;;2.53;;
78209;SDS011;67485;48.816;9.930;2023-02-22T03:51:05;4.88;;;2.47;;
78209;SDS011;67485;48.816;9.930;2023-02-22T03:53:32;6.70;;;2.60;;
78209;SDS011;67485;48.816;9.930;2023-02-22T03:55:58;6.03;;;2.70;;
78209;SDS011;67485;48.816;9.930;2023-02-22T03:58:26;7.03;;;2.63;;
78209;SDS011;67485;48.816;9.930;2023-02-22T04:00:56;5.03;;;2.72;;
78209;SDS011;67485;48.816;9.930;2023-02-22T04:03:22;7.13;;;2.73;;
78209;SDS011;67485;48.816;9.930;2023-02-22T04:05:48;4.82;;;2.40;;
78209;SDS011;67485;48.816;9.930;2023-02-22T04:08:14;5.22;;;3.05;;
78209;SDS011;67485;48.816;9.930;2023-02-22T04:10:41;6.50;;;3.03;;
78209;SDS011;67485;48.816;9.930;2023-02-22T04:13:07;8.13;;;3.40;;
78209;SDS011;67485;48.816;9.930;2023-02-22T04:15:35;9.10;;;3.90;;
78209;SDS011;67485;48.816;9.930;2023-02-22T04:18:03;10.18;;;3.40;;
78209;SDS011;67485;48.816;9.930;2023-02-22T04:20:30;7.15;;;3.33;;
78209;SDS011;67485;48.816;9.930;2023-02-22T04:23:19;6.77;;;3.60;;
78209;SDS011;67485;48.816;9.930;2023-02-22T04:25:45;6.38;;;3.17;;
78209;SDS011;67485;48.816;9.930;2023-02-22T04:28:12;6.75;;;3.13;;
78209;SDS011;67485;48.816;9.930;2023-02-22T04:31:01;7.72;;;3.38;;
78209;SDS011;67485;48.816;9.930;2023-02-22T04:33:27;6.83;;;3.40;;
78209;SDS011;67485;48.816;9.930;2023-02-22T04:35:53;7.68;;;3.40;;
78209;SDS011;67485;48.816;9.930;2023-02-22T04:38:19;8.15;;;3.67;;
78209;SDS011;67485;48.816;9.930;2023-02-22T04:40:46;5.73;;;3.17;;
78209;SDS011;67485;48.816;9.930;2023-02-22T04:43:13;6.72;;;3.65;;
78209;SDS011;67485;48.816;9.930;2023-02-22T04:45:39;7.90;;;3.40;;
78209;SDS011;67485;48.816;9.930;2023-02-22T04:48:06;8.27;;;3.65;;
78209;SDS011;67485;48.816;9.930;2023-02-22T04:50:32;8.33;;;3.27;;
78209;SDS011;67485;48.816;9.930;2023-02-22T04:52:58;8.95;;;4.15;;
78209;SDS011;67485;48.816;9.930;2023-02-22T04:55:23;8.53;;;3.70;;
78209;SDS011;67485;48.816;9.930;2023-02-22T04:57:49;8.32;;;3.88;;
78209;SDS011;67485;48.816;9.930;2023-02-22T05:00:16;7.97;;;4.65;;
78209;SDS011;67485;48.816;9.930;2023-02-22T05:02:43;10.57;;;5.70;;
78209;SDS011;67485;48.816;9.930;2023-02-22T05:05:09;10.07;;;6.10;;
78209;SDS011;67485;48.816;9.930;2023-02-22T05:07:35;9.73;;;5.78;;
78209;SDS011;67485;48.816;9.930;2023-02-22T05:10:01;9.30;;;5.18;;
78209;SDS011;67485;48.816;9.930;2023-02-22T05:12:27;9.73;;;5.57;;
78209;SDS011;67485;48.816;9.930;2023-02-22T05:14:52;19.65;;;8.88;;
78209;SDS011;67485;48.816;9.930;2023-02-22T05:17:18;19.13;;;8.87;;
78209;SDS011;67485;48.816;9.930;2023-02-22T05:19:44;19.52;;;8.63;;
78209;SDS011;67485;48.816;9.930;2023-02-22T05:22:09;13.93;;;7.50;;
78209;SDS011;67485;48.816;9.930;2023-02-22T05:24:35;15.00;;;7.50;;
78209;SDS011;67485;48.816;9.930;2023-02-22T05:27:01;10.30;;;5.50;;
78209;SDS011;67485;48.816;9.930;2023-02-22T05:29:27;12.90;;;5.90;;
78209;SDS011;67485;48.816;9.930;2023-02-22T05:31:52;10.03;;;5.07;;
78209;SDS011;67485;48.816;9.930;2023-02-22T05:34:18;10.98;;;5.95;;
78209;SDS011;67485;48.816;9.930;2023-02-22T05:36:43;10.95;;;5.25;;
78209;SDS011;67485;48.816;9.930;2023-02-22T05:39:10;10.65;;;5.07;;
78209;SDS011;67485;48.816;9.930;2023-02-22T05:41:36;11.07;;;5.87;;
78209;SDS011;67485;48.816;9.930;2023-02-22T05:44:02;14.05;;;6.80;;
78209;SDS011;67485;48.816;9.930;2023-02-22T05:46:28;9.30;;;4.70;;
78209;SDS011;67485;48.816;9.930;2023-02-22T05:48:54;7.93;;;4.23;;
78209;SDS011;67485;48.816;9.930;2023-02-22T05:51:19;13.20;;;4.82;;
78209;SDS011;67485;48.816;9.930;2023-02-22T05:53:45;8.67;;;4.27;;
78209;SDS011;67485;48.816;9.930;2023-02-22T05:56:11;9.00;;;4.53;;
78209;SDS011;67485;48.816;9.930;2023-02-22T05:58:36;9.47;;;4.63;;
78209;SDS011;67485;48.816;9.930;2023-02-22T06:01:02;8.93;;;4.93;;
78209;SDS011;67485;48.816;9.930;2023-02-22T06:03:28;9.47;;;4.90;;
78209;SDS011;67485;48.816;9.930;2023-02-22T06:05:53;8.13;;;4.50;;
78209;SDS011;67485;48.816;9.930;2023-02-22T06:08:19;7.55;;;4.38;;
78209;SDS011;67485;48.816;9.930;2023-02-22T06:10:44;8.83;;;4.57;;
78209;SDS011;67485;48.816;9.930;2023-02-22T06:13:10;7.80;;;4.20;;
78209;SDS011;67485;48.816;9.930;2023-02-22T06:15:36;7.47;;;3.87;;
78209;SDS011;67485;48.816;9.930;2023-02-22T06:18:01;10.10;;;4.65;;
78209;SDS011;67485;48.816;9.930;2023-02-22T06:20:29;13.10;;;5.37;;
78209;SDS011;67485;48.816;9.930;2023-02-22T06:22:56;8.18;;;4.63;;
78209;SDS011;67485;48.816;9.930;2023-02-22T06:25:24;10.60;;;4.75;;
78209;SDS011;67485;48.816;9.930;2023-02-22T06:27:51;10.43;;;4.80;;
78209;SDS011;67485;48.816;9.930;2023-02-22T06:30:18;7.43;;;3.93;;
78209;SDS011;67485;48.816;9.930;2023-02-22T06:32:44;10.63;;;4.07;;
78209;SDS011;67485;48.816;9.930;2023-02-22T06:35:10;8.20;;;4.20;;
78209;SDS011;67485;48.816;9.930;2023-02-22T06:37:36;8.47;;;4.10;;
78209;SDS011;67485;48.816;9.930;2023-02-22T06:40:02;8.20;;;4.30;;
78209;SDS011;67485;48.816;9.930;2023-02-22T06:42:28;10.70;;;6.23;;
78209;SDS011;67485;48.816;9.930;2023-02-22T06:44:54;9.80;;;5.88;;
78209;SDS011;67485;48.816;9.930;2023-02-22T06:47:19;15.93;;;7.93;;
78209;SDS011;67485;48.816;9.930;2023-02-22T06:49:50;15.15;;;7.15;;
78209;SDS011;67485;48.816;9.930;2023-02-22T06:52:20;12.27;;;6.63;;
78209;SDS011;67485;48.816;9.930;2023-02-22T06:54:46;10.50;;;5.13;;
78209;SDS011;67485;48.816;9.930;2023-02-22T06:57:11;13.25;;;5.80;;
78209;SDS011;67485;48.816;9.930;2023-02-22T06:59:37;10.63;;;5.40;;
78209;SDS011;67485;48.816;9.930;2023-02-22T07:02:03;12.48;;;6.60;;
78209;SDS011;67485;48.816;9.930;2023-02-22T07:04:28;14.40;;;7.20;;
78209;SDS011;67485;48.816;9.930;2023-02-22T07:06:54;16.10;;;8.38;;
78209;SDS011;67485;48.816;9.930;2023-02-22T07:09:20;18.58;;;8.63;;
78209;SDS011;67485;48.816;9.930;2023-02-22T07:11:46;17.07;;;8.97;;
78209;SDS011;67485;48.816;9.930;2023-02-22T07:14:11;20.93;;;9.23;;
78209;SDS011;67485;48.816;9.930;2023-02-22T07:16:37;26.45;;;10.45;;
78209;SDS011;67485;48.816;9.930;2023-02-22T07:19:03;29.33;;;10.80;;
78209;SDS011;67485;48.816;9.930;2023-02-22T07:21:29;28.93;;;11.90;;
78209;SDS011;67485;48.816;9.930;2023-02-22T07:23:56;23.60;;;10.50;;
78209;SDS011;67485;48.816;9.930;2023-02-22T07:26:23;23.60;;;9.63;;
78209;SDS011;67485;48.816;9.930;2023-02-22T07:28:50;21.40;;;8.43;;
78209;SDS011;67485;48.816;9.930;2023-02-22T07:31:16;20.42;;;9.07;;
78209;SDS011;67485;48.816;9.930;2023-02-22T07:33:42;23.40;;;9.50;;
78209;SDS011;67485;48.816;9.930;2023-02-22T07:36:08;21.93;;;8.70;;
78209;SDS011;67485;48.816;9.930;2023-02-22T07:38:33;21.80;;;9.43;;
78209;SDS011;67485;48.816;9.930;2023-02-22T07:40:59;17.73;;;8.00;;
78209;SDS011;67485;48.816;9.930;2023-02-22T07:43:26;17.10;;;7.90;;
78209;SDS011;67485;48.816;9.930;2023-02-22T07:45:54;16.60;;;7.88;;
78209;SDS011;67485;48.816;9.930;2023-02-22T07:48:22;15.10;;;6.85;;
78209;SDS011;67485;48.816;9.930;2023-02-22T07:50:49;15.35;;;7.57;;
78209;SDS011;67485;48.816;9.930;2023-02-22T07:53:16;13.90;;;7.00;;
78209;SDS011;67485;48.816;9.930;2023-02-22T07:55:43;12.07;;;5.90;;
78209;SDS011;67485;48.816;9.930;2023-02-22T07:58:12;11.60;;;5.60;;
78209;SDS011;67485;48.816;9.930;2023-02-22T08:00:39;10.85;;;5.45;;
78209;SDS011;67485;48.816;9.930;2023-02-22T08:03:06;10.02;;;4.95;;
78209;SDS011;67485;48.816;9.930;2023-02-22T08:05:33;11.55;;;5.40;;
78209;SDS011;67485;48.816;9.930;2023-02-22T08:08:00;8.83;;;5.57;;
78209;SDS011;67485;48.816;9.930;2023-02-22T08:10:26;10.32;;;5.00;;
78209;SDS011;67485;48.816;9.930;2023-02-22T08:12:52;7.82;;;4.05;;
78209;SDS011;67485;48.816;9.930;2023-02-22T08:17:53;13.63;;;6.00;;
78209;SDS011;67485;48.816;9.930;2023-02-22T08:20:19;11.68;;;5.65;;
78209;SDS011;67485;48.816;9.930;2023-02-22T08:22:45;12.98;;;6.50;;
78209;SDS011;67485;48.816;9.930;2023-02-22T08:25:12;10.40;;;5.43;;
78209;SDS011;67485;48.816;9.930;2023-02-22T08:27:40;13.65;;;5.57;;
78209;SDS011;67485;48.816;9.930;2023-02-22T08:30:06;11.03;;;5.07;;
78209;SDS011;67485;48.816;9.930;2023-02-22T08:32:33;15.38;;;6.70;;
78209;SDS011;67485;48.816;9.930;2023-02-22T08:35:00;10.05;;;5.75;;
78209;SDS011;67485;48.816;9.930;2023-02-22T08:37:27;10.82;;;4.80;;
78209;SDS011;67485;48.816;9.930;2023-02-22T08:39:53;10.80;;;5.03;;
78209;SDS011;67485;48.816;9.930;2023-02-22T08:42:20;11.10;;;5.10;;
78209;SDS011;67485;48.816;9.930;2023-02-22T08:44:46;10.52;;;4.75;;
78209;SDS011;67485;48.816;9.930;2023-02-22T08:47:12;7.93;;;4.47;;
78209;SDS011;67485;48.816;9.930;2023-02-22T08:49:38;9.55;;;3.50;;
78209;SDS011;67485;48.816;9.930;2023-02-22T08:52:03;6.85;;;3.95;;
78209;SDS011;67485;48.816;9.930;2023-02-22T08:54:29;8.13;;;3.70;;
78209;SDS011;67485;48.816;9.930;2023-02-22T08:56:55;10.77;;;5.18;;
78209;SDS011;67485;48.816;9.930;2023-02-22T08:59:21;7.93;;;4.17;;
78209;SDS011;67485;48.816;9.930;2023-02-22T09:01:47;6.47;;;3.40;;
78209;SDS011;67485;48.816;9.930;2023-02-22T09:04:12;6.23;;;3.00;;
78209;SDS011;67485;48.816;9.930;2023-02-22T09:06:41;7.13;;;3.00;;
78209;SDS011;67485;48.816;9.930;2023-02-22T09:09:08;9.63;;;3.23;;
78209;SDS011;67485;48.816;9.930;2023-02-22T09:11:34;6.10;;;3.08;;
78209;SDS011;67485;48.816;9.930;2023-02-22T09:14:00;9.27;;;2.60;;
78209;SDS011;67485;48.816;9.930;2023-02-22T09:16:25;8.27;;;2.97;;
78209;SDS011;67485;48.816;9.930;2023-02-22T09:18:51;6.90;;;2.88;;
78209;SDS011;67485;48.816;9.930;2023-02-22T09:21:17;4.43;;;2.70;;
78209;SDS011;67485;48.816;9.930;2023-02-22T09:23:43;5.03;;;2.40;;
78209;SDS011;67485;48.816;9.930;2023-02-22T09:26:11;6.38;;;2.72;;
78209;SDS011;67485;48.816;9.930;2023-02-22T09:28:40;5.85;;;2.40;;
78209;SDS011;67485;48.816;9.930;2023-02-22T09:31:06;6.72;;;2.30;;
78209;SDS011;67485;48.816;9.930;2023-02-22T09:33:32;4.22;;;1.90;;
78209;SDS011;67485;48.816;9.930;2023-02-22T09:35:58;3.87;;;1.80;;
78209;SDS011;67485;48.816;9.930;2023-02-22T09:38:25;5.70;;;2.17;;
78209;SDS011;67485;48.816;9.930;2023-02-22T09:40:52;4.20;;;1.60;;
78209;SDS011;67485;48.816;9.930;2023-02-22T09:46:32;3.10;;;1.80;;
78209;SDS011;67485;48.816;9.930;2023-02-22T09:54:27;4.30;;;2.13;;
78209;SDS011;67485;48.816;9.930;2023-02-22T09:57:03;4.67;;;1.87;;
78209;SDS011;67485;48.816;9.930;2023-02-22T09:59:34;3.50;;;1.90;;
78209;SDS011;67485;48.816;9.930;2023-02-22T10:05:56;4.68;;;1.67;;
78209;SDS011;67485;48.816;9.930;2023-02-22T10:07:58;2.85;;;1.33;;
78209;SDS011;67485;48.816;9.930;2023-02-22T10:10:34;3.83;;;1.30;;
78209;SDS011;67485;48.816;9.930;2023-02-22T10:13:13;3.83;;;1.48;;
78209;SDS011;67485;48.816;9.930;2023-02-22T10:18:58;2.40;;;1.55;;
78209;SDS011;67485;48.816;9.930;2023-02-22T10:21:58;5.32;;;1.38;;
78209;SDS011;67485;48.816;9.930;2023-02-22T10:27:18;2.38;;;1.48;;
78209;SDS011;67485;48.816;9.930;2023-02-22T10:29:50;2.42;;;1.35;;
78209;SDS011;67485;48.816;9.930;2023-02-22T10:32:25;3.90;;;1.70;;
78209;SDS011;67485;48.816;9.930;2023-02-22T10:34:55;2.40;;;1.55;;
78209;SDS011;67485;48.816;9.930;2023-02-22T10:37:26;6.17;;;1.87;;
78209;SDS011;67485;48.816;9.930;2023-02-22T10:40:16;4.20;;;2.00;;
78209;SDS011;67485;48.816;9.930;2023-02-22T10:42:47;2.78;;;1.80;;
78209;SDS011;67485;48.816;9.930;2023-02-22T10:45:18;3.55;;;1.50;;
78209;SDS011;67485;48.816;9.930;2023-02-22T10:47:48;4.38;;;1.85;;
78209;SDS011;67485;48.816;9.930;2023-02-22T10:50:15;2.57;;;1.63;;
78209;SDS011;67485;48.816;9.930;2023-02-22T10:52:42;2.80;;;1.92;;
78209;SDS011;67485;48.816;9.930;2023-02-22T10:55:11;3.13;;;1.70;;
78209;SDS011;67485;48.816;9.930;2023-02-22T10:57:38;3.33;;;1.80;;
78209;SDS011;67485;48.816;9.930;2023-02-22T11:00:27;2.53;;;1.60;;
78209;SDS011;67485;48.816;9.930;2023-02-22T11:02:57;3.42;;;1.85;;
78209;SDS011;67485;48.816;9.930;2023-02-22T11:05:35;3.40;;;1.75;;
78209;SDS011;67485;48.816;9.930;2023-02-22T11:11:02;3.15;;;1.65;;
78209;SDS011;67485;48.816;9.930;2023-02-22T11:13:45;2.90;;;1.80;;
78209;SDS011;67485;48.816;9.930;2023-02-22T11:16:35;3.17;;;1.80;;
78209;SDS011;67485;48.816;9.930;2023-02-22T11:19:34;4.35;;;1.50;;
78209;SDS011;67485;48.816;9.930;2023-02-22T11:22:12;3.25;;;1.95;;
78209;SDS011;67485;48.816;9.930;2023-02-22T11:24:52;3.42;;;2.20;;
78209;SDS011;67485;48.816;9.930;2023-02-22T11:30:07;5.22;;;2.72;;
78209;SDS011;67485;48.816;9.930;2023-02-22T11:32:45;4.25;;;2.70;;
78209;SDS011;67485;48.816;9.930;2023-02-22T11:35:18;7.78;;;2.78;;
78209;SDS011;67485;48.816;9.930;2023-02-22T11:43:35;7.60;;;3.03;;
78209;SDS011;67485;48.816;9.930;2023-02-22T11:46:05;5.88;;;2.60;;
78209;SDS011;67485;48.816;9.930;2023-02-22T11:48:44;5.95;;;3.40;;
78209;SDS011;67485;48.816;9.930;2023-02-22T11:51:47;5.60;;;2.85;;
78209;SDS011;67485;48.816;9.930;2023-02-22T11:57:19;5.53;;;3.00;;
78209;SDS011;67485;48.816;9.930;2023-02-22T12:22:09;6.30;;;3.40;;
78209;SDS011;67485;48.816;9.930;2023-02-22T12:24:59;5.50;;;3.50;;
78209;SDS011;67485;48.816;9.930;2023-02-22T12:27:45;5.05;;;3.38;;
78209;SDS011;67485;48.816;9.930;2023-02-22T12:33:20;6.28;;;3.00;;
78209;SDS011;67485;48.816;9.930;2023-02-22T12:35:52;5.60;;;3.27;;
78209;SDS011;67485;48.816;9.930;2023-02-22T12:38:56;7.85;;;3.42;;
78209;SDS011;67485;48.816;9.930;2023-02-22T12:44:14;6.50;;;2.92;;
78209;SDS011;67485;48.816;9.930;2023-02-22T12:46:51;6.35;;;3.15;;
78209;SDS011;67485;48.816;9.930;2023-02-22T13:00:24;6.35;;;3.28;;
78209;SDS011;67485;48.816;9.930;2023-02-22T13:08:37;4.38;;;2.72;;
78209;SDS011;67485;48.816;9.930;2023-02-22T13:11:19;5.63;;;2.88;;
78209;SDS011;67485;48.816;9.930;2023-02-22T13:14:08;5.13;;;2.90;;
78209;SDS011;67485;48.816;9.930;2023-02-22T13:19:25;5.40;;;2.90;;
78209;SDS011;67485;48.816;9.930;2023-02-22T13:22:00;4.38;;;2.70;;
78209;SDS011;67485;48.816;9.930;2023-02-22T13:24:34;5.50;;;3.15;;
78209;SDS011;67485;48.816;9.930;2023-02-22T13:27:24;4.13;;;2.70;;
78209;SDS011;67485;48.816;9.930;2023-02-22T13:29:56;6.63;;;2.80;;
78209;SDS011;67485;48.816;9.930;2023-02-22T13:37:49;5.43;;;2.63;;
78209;SDS011;67485;48.816;9.930;2023-02-22T13:40:32;7.03;;;2.53;;
78209;SDS011;67485;48.816;9.930;2023-02-22T13:51:34;5.95;;;2.90;;
78209;SDS011;67485;48.816;9.930;2023-02-22T13:54:16;7.00;;;2.95;;
78209;SDS011;67485;48.816;9.930;2023-02-22T13:56:49;5.00;;;2.87;;
78209;SDS011;67485;48.816;9.930;2023-02-22T13:59:27;3.70;;;2.50;;
78209;SDS011;67485;48.816;9.930;2023-02-22T14:02:01;6.97;;;3.50;;
78209;SDS011;67485;48.816;9.930;2023-02-22T14:06:58;6.77;;;3.10;;
78209;SDS011;67485;48.816;9.930;2023-02-22T14:17:41;9.70;;;3.00;;
78209;SDS011;67485;48.816;9.930;2023-02-22T14:22:39;5.68;;;2.85;;
78209;SDS011;67485;48.816;9.930;2023-02-22T14:25:29;6.03;;;2.90;;
78209;SDS011;67485;48.816;9.930;2023-02-22T14:27:55;7.20;;;2.80;;
78209;SDS011;67485;48.816;9.930;2023-02-22T14:30:28;4.73;;;2.70;;
78209;SDS011;67485;48.816;9.930;2023-02-22T14:32:56;6.88;;;3.30;;
78209;SDS011;67485;48.816;9.930;2023-02-22T14:35:22;5.38;;;3.10;;
78209;SDS011;67485;48.816;9.930;2023-02-22T14:37:57;5.90;;;3.33;;
78209;SDS011;67485;48.816;9.930;2023-02-22T14:40:30;5.95;;;2.78;;
78209;SDS011;67485;48.816;9.930;2023-02-22T14:43:07;7.00;;;3.17;;
78209;SDS011;67485;48.816;9.930;2023-02-22T14:45:51;6.78;;;2.83;;
78209;SDS011;67485;48.816;9.930;2023-02-22T14:50:58;7.03;;;3.40;;
78209;SDS011;67485;48.816;9.930;2023-02-22T14:53:32;7.97;;;2.90;;
78209;SDS011;67485;48.816;9.930;2023-02-22T14:56:05;4.65;;;2.90;;
78209;SDS011;67485;48.816;9.930;2023-02-22T15:03:54;6.53;;;3.13;;
78209;SDS011;67485;48.816;9.930;2023-02-22T15:06:24;7.32;;;2.97;;
78209;SDS011;67485;48.816;9.930;2023-02-22T15:11:52;6.13;;;3.47;;
78209;SDS011;67485;48.816;9.930;2023-02-22T15:14:27;9.05;;;3.75;;
78209;SDS011;67485;48.816;9.930;2023-02-22T15:16:58;7.07;;;3.90;;
78209;SDS011;67485;48.816;9.930;2023-02-22T15:19:26;7.85;;;3.67;;
78209;SDS011;67485;48.816;9.930;2023-02-22T15:21:58;7.18;;;3.70;;
78209;SDS011;67485;48.816;9.930;2023-02-22T15:24:27;7.35;;;3.50;;
78209;SDS011;67485;48.816;9.930;2023-02-22T15:26:54;9.05;;;3.67;;
78209;SDS011;67485;48.816;9.930;2023-02-22T15:29:30;9.70;;;3.77;;
78209;SDS011;67485;48.816;9.930;2023-02-22T15:32:01;9.63;;;3.80;;
78209;SDS011;67485;48.816;9.930;2023-02-22T15:34:42;9.25;;;3.78;;
78209;SDS011;67485;48.816;9.930;2023-02-22T15:37:41;7.75;;;3.85;;
78209;SDS011;67485;48.816;9.930;2023-02-22T15:43:03;9.73;;;4.40;;
78209;SDS011;67485;48.816;9.930;2023-02-22T15:45:32;8.10;;;4.00;;
78209;SDS011;67485;48.816;9.930;2023-02-22T15:47:59;8.32;;;3.58;;
78209;SDS011;67485;48.816;9.930;2023-02-22T15:55:28;7.25;;;3.80;;
78209;SDS011;67485;48.816;9.930;2023-02-22T15:58:06;8.40;;;4.00;;
78209;SDS011;67485;48.816;9.930;2023-02-22T16:00:35;6.05;;;3.53;;
78209;SDS011;67485;48.816;9.930;2023-02-22T16:03:04;8.70;;;3.90;;
78209;SDS011;67485;48.816;9.930;2023-02-22T16:05:36;8.10;;;3.83;;
78209;SDS011;67485;48.816;9.930;2023-02-22T16:08:12;9.93;;;4.00;;
78209;SDS011;67485;48.816;9.930;2023-02-22T16:10:39;7.82;;;3.90;;
78209;SDS011;67485;48.816;9.930;2023-02-22T16:13:34;7.78;;;3.95;;
78209;SDS011;67485;48.816;9.930;2023-02-22T16:16:01;8.00;;;3.75;;
78209;SDS011;67485;48.816;9.930;2023-02-22T16:23:50;10.65;;;5.20;;
78209;SDS011;67485;48.816;9.930;2023-02-22T16:28:53;12.13;;;5.78;;
78209;SDS011;67485;48.816;9.930;2023-02-22T16:31:24;15.97;;;6.30;;
78209;SDS011;67485;48.816;9.930;2023-02-22T16:33:58;10.45;;;6.68;;
78209;SDS011;67485;48.816;9.930;2023-02-22T16:36:38;13.13;;;7.85;;
78209;SDS011;67485;48.816;9.930;2023-02-22T16:39:07;12.45;;;7.20;;
78209;SDS011;67485;48.816;9.930;2023-02-22T16:41:38;10.13;;;6.07;;
78209;SDS011;67485;48.816;9.930;2023-02-22T16:44:03;10.33;;;5.77;;
78209;SDS011;67485;48.816;9.930;2023-02-22T16:46:32;11.32;;;6.15;;
78209;SDS011;67485;48.816;9.930;2023-02-22T16:48:58;14.13;;;5.90;;
78209;SDS011;67485;48.816;9.930;2023-02-22T16:51:27;10.88;;;6.13;;
78209;SDS011;67485;48.816;9.930;2023-02-22T16:53:57;12.53;;;6.80;;
78209;SDS011;67485;48.816;9.930;2023-02-22T16:56:25;11.70;;;6.43;;
78209;SDS011;67485;48.816;9.930;2023-02-22T16:58:53;13.75;;;6.57;;
78209;SDS011;67485;48.816;9.930;2023-02-22T17:01:19;12.10;;;6.00;;
78209;SDS011;67485;48.816;9.930;2023-02-22T17:03:47;14.23;;;5.82;;
78209;SDS011;67485;48.816;9.930;2023-02-22T17:06:15;14.00;;;5.80;;
78209;SDS011;67485;48.816;9.930;2023-02-22T17:08:41;14.95;;;6.43;;
78209;SDS011;67485;48.816;9.930;2023-02-22T17:11:08;16.52;;;6.45;;
78209;SDS011;67485;48.816;9.930;2023-02-22T17:13:37;15.73;;;6.80;;
78209;SDS011;67485;48.816;9.930;2023-02-22T17:16:05;14.68;;;6.72;;
78209;SDS011;67485;48.816;9.930;2023-02-22T17:18:31;14.32;;;6.88;;
78209;SDS011;67485;48.816;9.930;2023-02-22T17:20:58;14.23;;;7.07;;
78209;SDS011;67485;48.816;9.930;2023-02-22T17:23:26;9.82;;;6.05;;
78209;SDS011;67485;48.816;9.930;2023-02-22T17:25:53;13.30;;;6.67;;
78209;SDS011;67485;48.816;9.930;2023-02-22T17:28:22;12.75;;;6.68;;
78209;SDS011;67485;48.816;9.930;2023-02-22T17:30:48;15.23;;;7.10;;
78209;SDS011;67485;48.816;9.930;2023-02-22T17:33:16;15.25;;;6.32;;
78209;SDS011;67485;48.816;9.930;2023-02-22T17:35:44;14.77;;;6.65;;
78209;SDS011;67485;48.816;9.930;2023-02-22T17:38:11;14.53;;;6.43;;
78209;SDS011;67485;48.816;9.930;2023-02-22T17:40:42;15.35;;;5.75;;
78209;SDS011;67485;48.816;9.930;2023-02-22T17:43:09;11.38;;;6.32;;
78209;SDS011;67485;48.816;9.930;2023-02-22T17:45:38;11.20;;;6.30;;
78209;SDS011;67485;48.816;9.930;2023-02-22T17:48:06;12.10;;;6.47;;
78209;SDS011;67485;48.816;9.930;2023-02-22T17:50:35;15.52;;;7.20;;
78209;SDS011;67485;48.816;9.930;2023-02-22T17:53:01;13.57;;;7.03;;